sensor_id;sensor_type;location;lat;lon;timestamp;P1;durP1;ratioP1;P2;durP2;ratioP2
9330;SDS011;4704;50.470;12.072;2022-09-09T00:00:41;0.75;;;0.47;;
9330;SDS011;4704;50.470;12.072;2022-09-09T00:03:13;0.47;;;0.47;;
9330;SDS011;4704;50.470;12.072;2022-09-09T00:05:43;0.50;;;0.50;;
9330;SDS011;4704;50.470;12.072;2022-09-09T00:08:13;1.35;;;0.52;;
9330;SDS011;4704;50.470;12.072;2022-09-09T00:10:47;0.50;;;0.40;;
9330;SDS011;4704;50.470;12.072;2022-09-09T00:13:18;0.82;;;0.50;;
9330;SDS011;4704;50.470;12.072;2022-09-09T00:15:51;0.70;;;0.50;;
9330;SDS011;4704;50.470;12.072;2022-09-09T00:18:23;0.85;;;0.52;;
9330;SDS011;4704;50.470;12.072;2022-09-09T00:20:53;0.60;;;0.50;;
9330;SDS011;4704;50.470;12.072;2022-09-09T00:23:24;2.13;;;0.70;;
9330;SDS011;4704;50.470;12.072;2022-09-09T00:25:56;0.50;;;0.50;;
9330;SDS011;4704;50.470;12.072;2022-09-09T00:28:26;0.90;;;0.70;;
9330;SDS011;4704;50.470;12.072;2022-09-09T00:30:57;0.57;;;0.57;;
9330;SDS011;4704;50.470;12.072;2022-09-09T00:33:27;0.40;;;0.40;;
9330;SDS011;4704;50.470;12.072;2022-09-09T00:35:56;0.80;;;0.60;;
9330;SDS011;4704;50.470;12.072;2022-09-09T00:38:25;0.85;;;0.55;;
9330;SDS011;4704;50.470;12.072;2022-09-09T00:40:58;1.05;;;0.57;;
9330;SDS011;4704;50.470;12.072;2022-09-09T00:43:29;0.65;;;0.55;;
9330;SDS011;4704;50.470;12.072;2022-09-09T00:46:10;0.60;;;0.50;;
9330;SDS011;4704;50.470;12.072;2022-09-09T00:48:44;0.52;;;0.52;;
9330;SDS011;4704;50.470;12.072;2022-09-09T00:51:17;0.63;;;0.50;;
9330;SDS011;4704;50.470;12.072;2022-09-09T00:53:57;1.23;;;0.60;;
9330;SDS011;4704;50.470;12.072;2022-09-09T00:56:29;0.57;;;0.57;;
9330;SDS011;4704;50.470;12.072;2022-09-09T00:59:04;1.70;;;0.40;;
9330;SDS011;4704;50.470;12.072;2022-09-09T01:01:35;0.90;;;0.60;;
9330;SDS011;4704;50.470;12.072;2022-09-09T01:04:04;0.55;;;0.55;;
9330;SDS011;4704;50.470;12.072;2022-09-09T01:06:34;0.60;;;0.60;;
9330;SDS011;4704;50.470;12.072;2022-09-09T01:09:13;0.98;;;0.40;;
9330;SDS011;4704;50.470;12.072;2022-09-09T01:11:48;0.73;;;0.60;;
9330;SDS011;4704;50.470;12.072;2022-09-09T01:14:20;0.63;;;0.50;;
9330;SDS011;4704;50.470;12.072;2022-09-09T01:16:51;0.65;;;0.50;;
9330;SDS011;4704;50.470;12.072;2022-09-09T01:19:24;0.90;;;0.60;;
9330;SDS011;4704;50.470;12.072;2022-09-09T01:21:56;0.88;;;0.43;;
9330;SDS011;4704;50.470;12.072;2022-09-09T01:24:27;0.52;;;0.50;;
9330;SDS011;4704;50.470;12.072;2022-09-09T01:26:59;0.90;;;0.50;;
9330;SDS011;4704;50.470;12.072;2022-09-09T01:29:27;1.30;;;0.60;;
9330;SDS011;4704;50.470;12.072;2022-09-09T01:31:56;1.52;;;0.50;;
9330;SDS011;4704;50.470;12.072;2022-09-09T01:34:25;0.75;;;0.50;;
9330;SDS011;4704;50.470;12.072;2022-09-09T01:36:55;0.98;;;0.50;;
9330;SDS011;4704;50.470;12.072;2022-09-09T01:39:23;1.27;;;0.60;;
9330;SDS011;4704;50.470;12.072;2022-09-09T01:41:50;0.80;;;0.52;;
9330;SDS011;4704;50.470;12.072;2022-09-09T01:44:19;1.13;;;0.68;;
9330;SDS011;4704;50.470;12.072;2022-09-09T01:46:47;1.00;;;0.50;;
9330;SDS011;4704;50.470;12.072;2022-09-09T01:49:14;1.10;;;0.50;;
9330;SDS011;4704;50.470;12.072;2022-09-09T01:51:43;1.10;;;0.57;;
9330;SDS011;4704;50.470;12.072;2022-09-09T01:54:10;1.58;;;0.60;;
9330;SDS011;4704;50.470;12.072;2022-09-09T01:56:40;0.75;;;0.55;;
9330;SDS011;4704;50.470;12.072;2022-09-09T01:59:15;0.68;;;0.60;;
9330;SDS011;4704;50.470;12.072;2022-09-09T02:01:50;0.68;;;0.40;;
9330;SDS011;4704;50.470;12.072;2022-09-09T02:04:36;0.57;;;0.50;;
9330;SDS011;4704;50.470;12.072;2022-09-09T02:07:05;0.85;;;0.55;;
9330;SDS011;4704;50.470;12.072;2022-09-09T02:09:33;1.30;;;0.55;;
9330;SDS011;4704;50.470;12.072;2022-09-09T02:12:03;0.65;;;0.60;;
9330;SDS011;4704;50.470;12.072;2022-09-09T02:14:34;0.60;;;0.60;;
9330;SDS011;4704;50.470;12.072;2022-09-09T02:17:06;0.60;;;0.50;;
9330;SDS011;4704;50.470;12.072;2022-09-09T02:19:36;0.45;;;0.43;;
9330;SDS011;4704;50.470;12.072;2022-09-09T02:22:04;0.77;;;0.50;;
9330;SDS011;4704;50.470;12.072;2022-09-09T02:24:32;0.50;;;0.50;;
9330;SDS011;4704;50.470;12.072;2022-09-09T02:27:00;0.50;;;0.50;;
9330;SDS011;4704;50.470;12.072;2022-09-09T02:29:30;0.60;;;0.50;;
9330;SDS011;4704;50.470;12.072;2022-09-09T02:31:59;1.35;;;0.60;;
9330;SDS011;4704;50.470;12.072;2022-09-09T02:34:29;0.60;;;0.50;;
9330;SDS011;4704;50.470;12.072;2022-09-09T02:36:58;0.52;;;0.50;;
9330;SDS011;4704;50.470;12.072;2022-09-09T02:39:26;0.70;;;0.55;;
9330;SDS011;4704;50.470;12.072;2022-09-09T02:41:54;0.52;;;0.50;;
9330;SDS011;4704;50.470;12.072;2022-09-09T02:44:21;0.60;;;0.60;;
9330;SDS011;4704;50.470;12.072;2022-09-09T02:47:00;0.70;;;0.50;;
9330;SDS011;4704;50.470;12.072;2022-09-09T02:49:34;0.70;;;0.60;;
9330;SDS011;4704;50.470;12.072;2022-09-09T02:52:04;1.20;;;0.65;;
9330;SDS011;4704;50.470;12.072;2022-09-09T02:54:33;0.80;;;0.60;;
9330;SDS011;4704;50.470;12.072;2022-09-09T02:57:02;0.50;;;0.50;;
9330;SDS011;4704;50.470;12.072;2022-09-09T02:59:31;0.73;;;0.60;;
9330;SDS011;4704;50.470;12.072;2022-09-09T03:01:58;0.60;;;0.50;;
9330;SDS011;4704;50.470;12.072;2022-09-09T03:04:26;0.88;;;0.55;;
9330;SDS011;4704;50.470;12.072;2022-09-09T03:06:55;0.90;;;0.60;;
9330;SDS011;4704;50.470;12.072;2022-09-09T03:09:22;0.60;;;0.50;;
9330;SDS011;4704;50.470;12.072;2022-09-09T03:11:51;0.98;;;0.52;;
9330;SDS011;4704;50.470;12.072;2022-09-09T03:14:20;0.50;;;0.50;;
9330;SDS011;4704;50.470;12.072;2022-09-09T03:16:49;0.60;;;0.50;;
9330;SDS011;4704;50.470;12.072;2022-09-09T03:19:17;1.33;;;0.60;;
9330;SDS011;4704;50.470;12.072;2022-09-09T03:21:44;0.47;;;0.47;;
9330;SDS011;4704;50.470;12.072;2022-09-09T03:24:13;0.40;;;0.40;;
9330;SDS011;4704;50.470;12.072;2022-09-09T03:26:41;0.50;;;0.40;;
9330;SDS011;4704;50.470;12.072;2022-09-09T03:29:10;0.95;;;0.60;;
9330;SDS011;4704;50.470;12.072;2022-09-09T03:31:38;0.82;;;0.60;;
9330;SDS011;4704;50.470;12.072;2022-09-09T03:34:06;0.73;;;0.43;;
9330;SDS011;4704;50.470;12.072;2022-09-09T03:36:33;0.60;;;0.57;;
9330;SDS011;4704;50.470;12.072;2022-09-09T03:39:01;0.52;;;0.52;;
9330;SDS011;4704;50.470;12.072;2022-09-09T03:41:30;1.55;;;0.60;;
9330;SDS011;4704;50.470;12.072;2022-09-09T03:43:59;0.60;;;0.57;;
9330;SDS011;4704;50.470;12.072;2022-09-09T03:46:26;1.00;;;0.50;;
9330;SDS011;4704;50.470;12.072;2022-09-09T03:48:53;1.45;;;0.60;;
9330;SDS011;4704;50.470;12.072;2022-09-09T03:51:22;0.63;;;0.50;;
9330;SDS011;4704;50.470;12.072;2022-09-09T03:53:49;0.70;;;0.60;;
9330;SDS011;4704;50.470;12.072;2022-09-09T03:56:17;1.20;;;0.40;;
9330;SDS011;4704;50.470;12.072;2022-09-09T03:58:48;0.73;;;0.60;;
9330;SDS011;4704;50.470;12.072;2022-09-09T04:01:15;0.70;;;0.50;;
9330;SDS011;4704;50.470;12.072;2022-09-09T04:03:43;0.60;;;0.57;;
9330;SDS011;4704;50.470;12.072;2022-09-09T04:06:11;0.60;;;0.60;;
9330;SDS011;4704;50.470;12.072;2022-09-09T04:08:39;0.50;;;0.50;;
9330;SDS011;4704;50.470;12.072;2022-09-09T04:11:07;0.80;;;0.60;;
9330;SDS011;4704;50.470;12.072;2022-09-09T04:13:35;0.80;;;0.50;;
9330;SDS011;4704;50.470;12.072;2022-09-09T04:16:06;0.95;;;0.40;;
9330;SDS011;4704;50.470;12.072;2022-09-09T04:18:33;0.70;;;0.40;;
9330;SDS011;4704;50.470;12.072;2022-09-09T04:21:00;1.25;;;0.50;;
9330;SDS011;4704;50.470;12.072;2022-09-09T04:23:28;1.13;;;0.65;;
9330;SDS011;4704;50.470;12.072;2022-09-09T04:25:56;0.80;;;0.60;;
9330;SDS011;4704;50.470;12.072;2022-09-09T04:28:25;0.63;;;0.50;;
9330;SDS011;4704;50.470;12.072;2022-09-09T04:30:52;0.50;;;0.50;;
9330;SDS011;4704;50.470;12.072;2022-09-09T04:33:22;0.77;;;0.60;;
9330;SDS011;4704;50.470;12.072;2022-09-09T04:35:51;0.90;;;0.57;;
9330;SDS011;4704;50.470;12.072;2022-09-09T04:38:20;2.63;;;0.60;;
9330;SDS011;4704;50.470;12.072;2022-09-09T04:40:49;0.50;;;0.40;;
9330;SDS011;4704;50.470;12.072;2022-09-09T04:43:17;0.60;;;0.60;;
9330;SDS011;4704;50.470;12.072;2022-09-09T04:45:46;0.50;;;0.50;;
9330;SDS011;4704;50.470;12.072;2022-09-09T04:48:14;0.68;;;0.50;;
9330;SDS011;4704;50.470;12.072;2022-09-09T04:50:43;1.02;;;0.57;;
9330;SDS011;4704;50.470;12.072;2022-09-09T04:53:11;0.70;;;0.70;;
9330;SDS011;4704;50.470;12.072;2022-09-09T04:55:39;0.50;;;0.50;;
9330;SDS011;4704;50.470;12.072;2022-09-09T04:58:07;0.50;;;0.50;;
9330;SDS011;4704;50.470;12.072;2022-09-09T05:00:34;0.50;;;0.50;;
9330;SDS011;4704;50.470;12.072;2022-09-09T05:03:02;0.60;;;0.50;;
9330;SDS011;4704;50.470;12.072;2022-09-09T05:05:30;0.40;;;0.40;;
9330;SDS011;4704;50.470;12.072;2022-09-09T05:08:02;0.80;;;0.68;;
9330;SDS011;4704;50.470;12.072;2022-09-09T05:10:29;1.88;;;0.40;;
9330;SDS011;4704;50.470;12.072;2022-09-09T05:12:57;0.50;;;0.50;;
9330;SDS011;4704;50.470;12.072;2022-09-09T05:15:25;0.90;;;0.70;;
9330;SDS011;4704;50.470;12.072;2022-09-09T05:17:52;1.08;;;0.60;;
9330;SDS011;4704;50.470;12.072;2022-09-09T05:20:24;1.25;;;0.68;;
9330;SDS011;4704;50.470;12.072;2022-09-09T05:22:52;0.65;;;0.50;;
9330;SDS011;4704;50.470;12.072;2022-09-09T05:25:21;0.40;;;0.40;;
9330;SDS011;4704;50.470;12.072;2022-09-09T05:27:51;0.57;;;0.57;;
9330;SDS011;4704;50.470;12.072;2022-09-09T05:30:18;0.50;;;0.50;;
9330;SDS011;4704;50.470;12.072;2022-09-09T05:32:47;0.75;;;0.50;;
9330;SDS011;4704;50.470;12.072;2022-09-09T05:35:15;0.65;;;0.55;;
9330;SDS011;4704;50.470;12.072;2022-09-09T05:37:44;0.50;;;0.50;;
9330;SDS011;4704;50.470;12.072;2022-09-09T05:40:12;0.82;;;0.80;;
9330;SDS011;4704;50.470;12.072;2022-09-09T05:42:41;0.73;;;0.52;;
9330;SDS011;4704;50.470;12.072;2022-09-09T05:45:08;0.80;;;0.70;;
9330;SDS011;4704;50.470;12.072;2022-09-09T05:47:36;0.70;;;0.70;;
9330;SDS011;4704;50.470;12.072;2022-09-09T05:50:04;0.60;;;0.50;;
9330;SDS011;4704;50.470;12.072;2022-09-09T05:52:32;0.80;;;0.70;;
9330;SDS011;4704;50.470;12.072;2022-09-09T05:55:00;0.70;;;0.60;;
9330;SDS011;4704;50.470;12.072;2022-09-09T05:57:29;0.60;;;0.60;;
9330;SDS011;4704;50.470;12.072;2022-09-09T05:59:58;0.65;;;0.65;;
9330;SDS011;4704;50.470;12.072;2022-09-09T06:02:25;0.93;;;0.60;;
9330;SDS011;4704;50.470;12.072;2022-09-09T06:04:53;0.70;;;0.52;;
9330;SDS011;4704;50.470;12.072;2022-09-09T06:07:20;0.50;;;0.50;;
9330;SDS011;4704;50.470;12.072;2022-09-09T06:09:48;0.60;;;0.60;;
9330;SDS011;4704;50.470;12.072;2022-09-09T06:12:16;0.50;;;0.50;;
9330;SDS011;4704;50.470;12.072;2022-09-09T06:14:43;0.60;;;0.60;;
9330;SDS011;4704;50.470;12.072;2022-09-09T06:17:12;0.50;;;0.50;;
9330;SDS011;4704;50.470;12.072;2022-09-09T06:19:40;1.05;;;0.70;;
9330;SDS011;4704;50.470;12.072;2022-09-09T06:22:07;0.52;;;0.50;;
9330;SDS011;4704;50.470;12.072;2022-09-09T06:24:37;1.17;;;0.60;;
9330;SDS011;4704;50.470;12.072;2022-09-09T06:27:05;1.00;;;0.50;;
9330;SDS011;4704;50.470;12.072;2022-09-09T06:29:32;0.60;;;0.60;;
9330;SDS011;4704;50.470;12.072;2022-09-09T06:32:00;0.57;;;0.52;;
9330;SDS011;4704;50.470;12.072;2022-09-09T06:34:28;0.60;;;0.50;;
9330;SDS011;4704;50.470;12.072;2022-09-09T06:36:56;0.50;;;0.50;;
9330;SDS011;4704;50.470;12.072;2022-09-09T06:39:23;0.82;;;0.70;;
9330;SDS011;4704;50.470;12.072;2022-09-09T06:41:51;0.60;;;0.60;;
9330;SDS011;4704;50.470;12.072;2022-09-09T06:44:18;0.68;;;0.60;;
9330;SDS011;4704;50.470;12.072;2022-09-09T06:46:47;0.65;;;0.57;;
9330;SDS011;4704;50.470;12.072;2022-09-09T06:49:15;0.70;;;0.50;;
9330;SDS011;4704;50.470;12.072;2022-09-09T06:51:43;1.08;;;0.70;;
9330;SDS011;4704;50.470;12.072;2022-09-09T06:54:11;0.70;;;0.60;;
9330;SDS011;4704;50.470;12.072;2022-09-09T06:56:40;0.60;;;0.60;;
9330;SDS011;4704;50.470;12.072;2022-09-09T06:59:08;0.90;;;0.70;;
9330;SDS011;4704;50.470;12.072;2022-09-09T07:01:37;1.40;;;0.50;;
9330;SDS011;4704;50.470;12.072;2022-09-09T07:04:06;0.65;;;0.65;;
9330;SDS011;4704;50.470;12.072;2022-09-09T07:06:35;1.17;;;0.65;;
9330;SDS011;4704;50.470;12.072;2022-09-09T07:09:04;0.60;;;0.60;;
9330;SDS011;4704;50.470;12.072;2022-09-09T07:11:32;1.42;;;0.50;;
9330;SDS011;4704;50.470;12.072;2022-09-09T07:14:00;0.95;;;0.60;;
9330;SDS011;4704;50.470;12.072;2022-09-09T07:16:29;0.60;;;0.60;;
9330;SDS011;4704;50.470;12.072;2022-09-09T07:18:58;1.02;;;0.70;;
9330;SDS011;4704;50.470;12.072;2022-09-09T07:21:28;0.60;;;0.60;;
9330;SDS011;4704;50.470;12.072;2022-09-09T07:23:56;1.25;;;0.80;;
9330;SDS011;4704;50.470;12.072;2022-09-09T07:26:25;0.50;;;0.50;;
9330;SDS011;4704;50.470;12.072;2022-09-09T07:28:53;0.70;;;0.68;;
9330;SDS011;4704;50.470;12.072;2022-09-09T07:31:22;1.38;;;0.70;;
9330;SDS011;4704;50.470;12.072;2022-09-09T07:33:49;0.50;;;0.50;;
9330;SDS011;4704;50.470;12.072;2022-09-09T07:36:17;0.90;;;0.77;;
9330;SDS011;4704;50.470;12.072;2022-09-09T07:38:47;0.95;;;0.68;;
9330;SDS011;4704;50.470;12.072;2022-09-09T07:41:17;1.40;;;0.60;;
9330;SDS011;4704;50.470;12.072;2022-09-09T07:43:47;1.05;;;0.65;;
9330;SDS011;4704;50.470;12.072;2022-09-09T07:46:15;0.45;;;0.45;;
9330;SDS011;4704;50.470;12.072;2022-09-09T07:48:44;0.80;;;0.73;;
9330;SDS011;4704;50.470;12.072;2022-09-09T07:51:12;0.70;;;0.70;;
9330;SDS011;4704;50.470;12.072;2022-09-09T07:53:45;0.90;;;0.70;;
9330;SDS011;4704;50.470;12.072;2022-09-09T07:56:13;0.50;;;0.50;;
9330;SDS011;4704;50.470;12.072;2022-09-09T07:58:41;0.90;;;0.63;;
9330;SDS011;4704;50.470;12.072;2022-09-09T08:01:11;0.60;;;0.60;;
9330;SDS011;4704;50.470;12.072;2022-09-09T08:03:39;1.50;;;0.60;;
9330;SDS011;4704;50.470;12.072;2022-09-09T08:06:07;1.02;;;0.60;;
9330;SDS011;4704;50.470;12.072;2022-09-09T08:08:35;1.17;;;0.60;;
9330;SDS011;4704;50.470;12.072;2022-09-09T08:11:04;0.82;;;0.75;;
9330;SDS011;4704;50.470;12.072;2022-09-09T08:13:33;2.67;;;1.20;;
9330;SDS011;4704;50.470;12.072;2022-09-09T08:16:04;1.23;;;0.90;;
9330;SDS011;4704;50.470;12.072;2022-09-09T08:18:33;1.40;;;1.05;;
9330;SDS011;4704;50.470;12.072;2022-09-09T08:21:07;1.67;;;1.10;;
9330;SDS011;4704;50.470;12.072;2022-09-09T08:23:37;1.55;;;0.95;;
9330;SDS011;4704;50.470;12.072;2022-09-09T08:26:09;1.40;;;1.00;;
9330;SDS011;4704;50.470;12.072;2022-09-09T08:28:37;1.52;;;1.27;;
9330;SDS011;4704;50.470;12.072;2022-09-09T08:31:05;2.45;;;1.42;;
9330;SDS011;4704;50.470;12.072;2022-09-09T08:33:34;1.83;;;1.40;;
9330;SDS011;4704;50.470;12.072;2022-09-09T08:36:03;1.88;;;1.00;;
9330;SDS011;4704;50.470;12.072;2022-09-09T08:38:31;1.67;;;1.25;;
9330;SDS011;4704;50.470;12.072;2022-09-09T08:41:00;2.22;;;1.38;;
9330;SDS011;4704;50.470;12.072;2022-09-09T08:43:31;1.65;;;1.05;;
9330;SDS011;4704;50.470;12.072;2022-09-09T08:46:00;2.50;;;1.17;;
9330;SDS011;4704;50.470;12.072;2022-09-09T08:48:41;2.65;;;1.10;;
9330;SDS011;4704;50.470;12.072;2022-09-09T08:51:10;3.42;;;1.42;;
9330;SDS011;4704;50.470;12.072;2022-09-09T08:53:38;1.65;;;1.23;;
9330;SDS011;4704;50.470;12.072;2022-09-09T08:56:08;2.10;;;1.40;;
9330;SDS011;4704;50.470;12.072;2022-09-09T08:58:39;1.35;;;1.23;;
9330;SDS011;4704;50.470;12.072;2022-09-09T09:01:17;1.67;;;1.10;;
9330;SDS011;4704;50.470;12.072;2022-09-09T09:03:53;1.85;;;0.95;;
9330;SDS011;4704;50.470;12.072;2022-09-09T09:06:26;1.77;;;1.35;;
9330;SDS011;4704;50.470;12.072;2022-09-09T09:08:57;2.05;;;1.10;;
9330;SDS011;4704;50.470;12.072;2022-09-09T09:11:27;1.77;;;0.95;;
9330;SDS011;4704;50.470;12.072;2022-09-09T09:13:55;1.70;;;0.90;;
9330;SDS011;4704;50.470;12.072;2022-09-09T09:16:26;1.50;;;1.20;;
9330;SDS011;4704;50.470;12.072;2022-09-09T09:18:59;2.13;;;1.10;;
9330;SDS011;4704;50.470;12.072;2022-09-09T09:21:29;1.83;;;1.00;;
9330;SDS011;4704;50.470;12.072;2022-09-09T09:24:01;3.13;;;1.27;;
9330;SDS011;4704;50.470;12.072;2022-09-09T09:26:30;1.38;;;1.10;;
9330;SDS011;4704;50.470;12.072;2022-09-09T09:28:59;1.55;;;1.10;;
9330;SDS011;4704;50.470;12.072;2022-09-09T09:31:28;1.35;;;1.05;;
9330;SDS011;4704;50.470;12.072;2022-09-09T09:33:58;1.42;;;1.20;;
9330;SDS011;4704;50.470;12.072;2022-09-09T09:36:32;1.27;;;1.00;;
9330;SDS011;4704;50.470;12.072;2022-09-09T09:39:01;1.48;;;1.00;;
9330;SDS011;4704;50.470;12.072;2022-09-09T09:41:31;1.85;;;0.90;;
9330;SDS011;4704;50.470;12.072;2022-09-09T09:43:59;1.63;;;1.00;;
9330;SDS011;4704;50.470;12.072;2022-09-09T09:46:27;1.67;;;1.00;;
9330;SDS011;4704;50.470;12.072;2022-09-09T09:49:00;1.52;;;1.00;;
9330;SDS011;4704;50.470;12.072;2022-09-09T09:51:28;1.25;;;1.00;;
9330;SDS011;4704;50.470;12.072;2022-09-09T09:54:06;2.97;;;0.90;;
9330;SDS011;4704;50.470;12.072;2022-09-09T09:56:34;1.13;;;0.88;;
9330;SDS011;4704;50.470;12.072;2022-09-09T09:59:02;2.25;;;0.80;;
9330;SDS011;4704;50.470;12.072;2022-09-09T10:01:31;2.30;;;1.08;;
9330;SDS011;4704;50.470;12.072;2022-09-09T10:04:01;2.50;;;0.90;;
9330;SDS011;4704;50.470;12.072;2022-09-09T10:06:29;0.80;;;0.70;;
9330;SDS011;4704;50.470;12.072;2022-09-09T10:08:58;1.52;;;0.90;;
9330;SDS011;4704;50.470;12.072;2022-09-09T10:11:30;1.48;;;0.88;;
9330;SDS011;4704;50.470;12.072;2022-09-09T10:14:03;1.38;;;0.90;;
9330;SDS011;4704;50.470;12.072;2022-09-09T10:16:37;1.13;;;0.90;;
9330;SDS011;4704;50.470;12.072;2022-09-09T10:19:10;0.85;;;0.70;;
9330;SDS011;4704;50.470;12.072;2022-09-09T10:21:46;1.55;;;1.00;;
9330;SDS011;4704;50.470;12.072;2022-09-09T10:27:01;1.67;;;1.10;;
9330;SDS011;4704;50.470;12.072;2022-09-09T10:29:34;1.25;;;0.90;;
9330;SDS011;4704;50.470;12.072;2022-09-09T10:32:13;0.95;;;0.88;;
9330;SDS011;4704;50.470;12.072;2022-09-09T10:34:51;1.15;;;0.80;;
9330;SDS011;4704;50.470;12.072;2022-09-09T10:37:25;1.00;;;0.90;;
9330;SDS011;4704;50.470;12.072;2022-09-09T10:39:58;1.42;;;1.00;;
9330;SDS011;4704;50.470;12.072;2022-09-09T10:42:28;2.15;;;1.05;;
9330;SDS011;4704;50.470;12.072;2022-09-09T10:45:00;1.63;;;0.85;;
9330;SDS011;4704;50.470;12.072;2022-09-09T10:47:44;1.13;;;0.73;;
9330;SDS011;4704;50.470;12.072;2022-09-09T10:50:23;1.70;;;0.77;;
9330;SDS011;4704;50.470;12.072;2022-09-09T10:52:56;2.17;;;0.90;;
9330;SDS011;4704;50.470;12.072;2022-09-09T10:55:32;1.23;;;0.75;;
9330;SDS011;4704;50.470;12.072;2022-09-09T10:58:02;1.10;;;0.80;;
9330;SDS011;4704;50.470;12.072;2022-09-09T11:00:35;1.35;;;0.95;;
9330;SDS011;4704;50.470;12.072;2022-09-09T11:03:04;1.60;;;0.90;;
9330;SDS011;4704;50.470;12.072;2022-09-09T11:05:36;0.82;;;0.70;;
9330;SDS011;4704;50.470;12.072;2022-09-09T11:08:06;1.25;;;0.73;;
9330;SDS011;4704;50.470;12.072;2022-09-09T11:10:39;1.63;;;0.88;;
9330;SDS011;4704;50.470;12.072;2022-09-09T11:13:10;1.00;;;0.70;;
9330;SDS011;4704;50.470;12.072;2022-09-09T11:15:41;1.88;;;0.90;;
9330;SDS011;4704;50.470;12.072;2022-09-09T11:18:11;1.30;;;0.80;;
9330;SDS011;4704;50.470;12.072;2022-09-09T11:20:42;2.33;;;0.80;;
9330;SDS011;4704;50.470;12.072;2022-09-09T11:23:11;1.10;;;0.90;;
9330;SDS011;4704;50.470;12.072;2022-09-09T11:25:39;1.70;;;0.73;;
9330;SDS011;4704;50.470;12.072;2022-09-09T11:28:14;1.15;;;0.80;;
9330;SDS011;4704;50.470;12.072;2022-09-09T11:30:49;1.70;;;0.70;;
9330;SDS011;4704;50.470;12.072;2022-09-09T11:36:13;1.13;;;0.85;;
9330;SDS011;4704;50.470;12.072;2022-09-09T11:38:45;1.52;;;0.73;;
9330;SDS011;4704;50.470;12.072;2022-09-09T11:41:13;1.45;;;0.75;;
9330;SDS011;4704;50.470;12.072;2022-09-09T11:43:42;1.80;;;0.90;;
9330;SDS011;4704;50.470;12.072;2022-09-09T11:46:10;1.83;;;0.80;;
9330;SDS011;4704;50.470;12.072;2022-09-09T11:48:38;1.05;;;0.60;;
9330;SDS011;4704;50.470;12.072;2022-09-09T11:51:09;1.33;;;0.70;;
9330;SDS011;4704;50.470;12.072;2022-09-09T11:53:48;1.38;;;0.63;;
9330;SDS011;4704;50.470;12.072;2022-09-09T11:56:23;0.82;;;0.65;;
9330;SDS011;4704;50.470;12.072;2022-09-09T11:58:55;1.88;;;0.70;;
9330;SDS011;4704;50.470;12.072;2022-09-09T12:01:33;1.20;;;0.85;;
9330;SDS011;4704;50.470;12.072;2022-09-09T12:04:05;1.52;;;0.90;;
9330;SDS011;4704;50.470;12.072;2022-09-09T12:06:41;2.15;;;0.80;;
9330;SDS011;4704;50.470;12.072;2022-09-09T12:09:18;1.30;;;0.70;;
9330;SDS011;4704;50.470;12.072;2022-09-09T12:11:46;1.77;;;0.90;;
9330;SDS011;4704;50.470;12.072;2022-09-09T12:14:20;1.13;;;0.63;;
9330;SDS011;4704;50.470;12.072;2022-09-09T12:16:49;1.77;;;0.77;;
9330;SDS011;4704;50.470;12.072;2022-09-09T12:19:18;1.30;;;0.60;;
9330;SDS011;4704;50.470;12.072;2022-09-09T12:21:48;1.50;;;0.80;;
9330;SDS011;4704;50.470;12.072;2022-09-09T12:24:21;1.35;;;0.70;;
9330;SDS011;4704;50.470;12.072;2022-09-09T12:26:52;1.45;;;0.80;;
9330;SDS011;4704;50.470;12.072;2022-09-09T12:29:24;1.75;;;0.80;;
9330;SDS011;4704;50.470;12.072;2022-09-09T12:31:56;1.05;;;0.70;;
9330;SDS011;4704;50.470;12.072;2022-09-09T12:34:30;1.52;;;0.65;;
9330;SDS011;4704;50.470;12.072;2022-09-09T12:37:00;1.05;;;0.60;;
9330;SDS011;4704;50.470;12.072;2022-09-09T12:39:31;0.82;;;0.70;;
9330;SDS011;4704;50.470;12.072;2022-09-09T12:42:00;1.00;;;0.70;;
9330;SDS011;4704;50.470;12.072;2022-09-09T12:44:29;1.35;;;0.65;;
9330;SDS011;4704;50.470;12.072;2022-09-09T12:46:58;1.45;;;0.68;;
9330;SDS011;4704;50.470;12.072;2022-09-09T12:49:28;1.15;;;0.68;;
9330;SDS011;4704;50.470;12.072;2022-09-09T12:52:00;1.17;;;0.77;;
9330;SDS011;4704;50.470;12.072;2022-09-09T12:54:28;1.70;;;0.82;;
9330;SDS011;4704;50.470;12.072;2022-09-09T12:56:57;1.88;;;0.80;;
9330;SDS011;4704;50.470;12.072;2022-09-09T12:59:25;1.27;;;0.60;;
9330;SDS011;4704;50.470;12.072;2022-09-09T13:01:56;1.00;;;0.60;;
9330;SDS011;4704;50.470;12.072;2022-09-09T13:04:23;1.23;;;0.60;;
9330;SDS011;4704;50.470;12.072;2022-09-09T13:06:51;0.60;;;0.50;;
9330;SDS011;4704;50.470;12.072;2022-09-09T13:09:18;0.70;;;0.60;;
9330;SDS011;4704;50.470;12.072;2022-09-09T13:11:46;1.25;;;0.50;;
9330;SDS011;4704;50.470;12.072;2022-09-09T13:14:16;1.30;;;0.80;;
9330;SDS011;4704;50.470;12.072;2022-09-09T13:16:53;1.25;;;0.60;;
9330;SDS011;4704;50.470;12.072;2022-09-09T13:19:21;0.95;;;0.50;;
9330;SDS011;4704;50.470;12.072;2022-09-09T13:21:50;1.08;;;0.40;;
9330;SDS011;4704;50.470;12.072;2022-09-09T13:24:25;1.33;;;0.50;;
9330;SDS011;4704;50.470;12.072;2022-09-09T13:26:54;1.23;;;0.63;;
9330;SDS011;4704;50.470;12.072;2022-09-09T13:29:24;2.38;;;0.70;;
9330;SDS011;4704;50.470;12.072;2022-09-09T13:31:51;0.77;;;0.60;;
9330;SDS011;4704;50.470;12.072;2022-09-09T13:34:26;0.68;;;0.50;;
9330;SDS011;4704;50.470;12.072;2022-09-09T13:36:54;0.93;;;0.60;;
9330;SDS011;4704;50.470;12.072;2022-09-09T13:39:26;0.98;;;0.60;;
9330;SDS011;4704;50.470;12.072;2022-09-09T13:41:54;0.95;;;0.55;;
9330;SDS011;4704;50.470;12.072;2022-09-09T13:44:24;1.02;;;0.65;;
9330;SDS011;4704;50.470;12.072;2022-09-09T13:47:02;1.10;;;0.60;;
9330;SDS011;4704;50.470;12.072;2022-09-09T13:49:30;1.02;;;0.70;;
9330;SDS011;4704;50.470;12.072;2022-09-09T13:52:05;1.20;;;0.70;;
9330;SDS011;4704;50.470;12.072;2022-09-09T13:54:33;2.13;;;0.77;;
9330;SDS011;4704;50.470;12.072;2022-09-09T13:57:00;1.60;;;0.70;;
9330;SDS011;4704;50.470;12.072;2022-09-09T13:59:30;0.98;;;0.80;;
9330;SDS011;4704;50.470;12.072;2022-09-09T14:01:58;1.35;;;0.70;;
9330;SDS011;4704;50.470;12.072;2022-09-09T14:04:26;0.85;;;0.68;;
9330;SDS011;4704;50.470;12.072;2022-09-09T14:06:54;1.70;;;0.90;;
9330;SDS011;4704;50.470;12.072;2022-09-09T14:09:22;1.50;;;0.82;;
9330;SDS011;4704;50.470;12.072;2022-09-09T14:11:49;1.77;;;0.90;;
9330;SDS011;4704;50.470;12.072;2022-09-09T14:14:16;0.77;;;0.70;;
9330;SDS011;4704;50.470;12.072;2022-09-09T14:16:45;1.48;;;0.60;;
9330;SDS011;4704;50.470;12.072;2022-09-09T14:19:13;1.55;;;0.90;;
9330;SDS011;4704;50.470;12.072;2022-09-09T14:21:40;1.25;;;0.90;;
9330;SDS011;4704;50.470;12.072;2022-09-09T14:24:07;0.75;;;0.75;;
9330;SDS011;4704;50.470;12.072;2022-09-09T14:26:35;1.08;;;0.80;;
9330;SDS011;4704;50.470;12.072;2022-09-09T14:29:02;1.20;;;0.80;;
9330;SDS011;4704;50.470;12.072;2022-09-09T14:31:29;1.55;;;1.02;;
9330;SDS011;4704;50.470;12.072;2022-09-09T14:33:58;1.27;;;0.98;;
9330;SDS011;4704;50.470;12.072;2022-09-09T14:36:26;0.70;;;0.70;;
9330;SDS011;4704;50.470;12.072;2022-09-09T14:38:53;2.60;;;0.80;;
9330;SDS011;4704;50.470;12.072;2022-09-09T14:41:21;1.70;;;0.90;;
9330;SDS011;4704;50.470;12.072;2022-09-09T14:43:48;1.67;;;0.95;;
9330;SDS011;4704;50.470;12.072;2022-09-09T14:46:17;2.00;;;0.85;;
9330;SDS011;4704;50.470;12.072;2022-09-09T14:48:45;1.67;;;0.68;;
9330;SDS011;4704;50.470;12.072;2022-09-09T14:51:15;1.10;;;0.77;;
9330;SDS011;4704;50.470;12.072;2022-09-09T14:53:44;2.22;;;1.10;;
9330;SDS011;4704;50.470;12.072;2022-09-09T14:56:13;2.08;;;0.80;;
9330;SDS011;4704;50.470;12.072;2022-09-09T14:58:41;1.50;;;0.70;;
9330;SDS011;4704;50.470;12.072;2022-09-09T15:01:09;1.98;;;1.13;;
9330;SDS011;4704;50.470;12.072;2022-09-09T15:03:36;0.85;;;0.70;;
9330;SDS011;4704;50.470;12.072;2022-09-09T15:06:05;2.15;;;1.10;;
9330;SDS011;4704;50.470;12.072;2022-09-09T15:08:35;2.05;;;0.90;;
9330;SDS011;4704;50.470;12.072;2022-09-09T15:11:03;1.27;;;0.70;;
9330;SDS011;4704;50.470;12.072;2022-09-09T15:13:32;1.17;;;0.85;;
9330;SDS011;4704;50.470;12.072;2022-09-09T15:16:03;1.38;;;0.80;;
9330;SDS011;4704;50.470;12.072;2022-09-09T15:18:30;1.15;;;0.75;;
9330;SDS011;4704;50.470;12.072;2022-09-09T15:20:58;0.80;;;0.80;;